createdAt,value
2017-12-09T00:01:37.532Z,2.12
2017-12-09T00:04:05.009Z,1.73
2017-12-09T00:06:32.490Z,1.60
2017-12-09T00:08:59.968Z,1.77
2017-12-09T00:11:27.447Z,1.48
2017-12-09T00:13:54.963Z,2.00
2017-12-09T00:16:22.462Z,1.58
2017-12-09T00:18:49.938Z,1.58
2017-12-09T00:21:17.685Z,1.50
2017-12-09T00:23:45.168Z,1.52
2017-12-09T00:26:12.398Z,1.40
2017-12-09T00:28:39.876Z,1.70
2017-12-09T00:31:07.354Z,2.08
2017-12-09T00:33:34.838Z,1.60
2017-12-09T00:36:02.323Z,1.62
2017-12-09T00:38:29.798Z,1.50
2017-12-09T00:40:57.278Z,1.60
2017-12-09T00:43:24.815Z,1.67
2017-12-09T00:45:52.302Z,1.45
2017-12-09T00:48:19.815Z,1.62
2017-12-09T00:50:47.299Z,2.00
2017-12-09T00:53:14.850Z,1.45
2017-12-09T00:55:42.323Z,1.40
2017-12-09T00:58:09.821Z,1.58
2017-12-09T01:00:37.301Z,1.65
2017-12-09T01:03:04.794Z,1.87
2017-12-09T01:05:32.269Z,1.50
2017-12-09T01:07:59.801Z,1.50
2017-12-09T01:10:27.474Z,1.85
2017-12-09T01:12:54.979Z,2.05
2017-12-09T01:15:28.123Z,2.20
2017-12-09T01:18:01.178Z,2.17
2017-12-09T01:20:28.755Z,2.45
2017-12-09T01:22:56.259Z,2.40
2017-12-09T01:25:24.733Z,2.60
2017-12-09T01:27:52.243Z,2.30
2017-12-09T01:30:19.728Z,2.55
2017-12-09T01:32:47.225Z,2.60
2017-12-09T01:35:14.727Z,1.98
2017-12-09T01:37:42.227Z,2.17
2017-12-09T01:40:09.707Z,2.20
2017-12-09T01:42:37.238Z,2.08
2017-12-09T01:45:04.714Z,2.20
2017-12-09T01:47:32.196Z,2.22
2017-12-09T01:49:59.675Z,2.10
2017-12-09T01:52:27.193Z,2.05
2017-12-09T01:54:54.750Z,2.08
2017-12-09T01:57:22.249Z,1.90
2017-12-09T01:59:49.729Z,2.20
2017-12-09T02:02:17.209Z,2.85
2017-12-09T02:04:44.687Z,2.33
2017-12-09T02:07:12.283Z,2.58
2017-12-09T02:09:39.765Z,2.45
2017-12-09T02:12:07.241Z,2.25
2017-12-09T02:14:34.787Z,2.30
2017-12-09T02:17:02.294Z,2.70
2017-12-09T02:19:30.738Z,2.40
2017-12-09T02:21:58.246Z,3.15
2017-12-09T02:24:25.815Z,2.55
2017-12-09T02:26:54.344Z,3.15
2017-12-09T02:29:21.832Z,2.65
2017-12-09T02:31:49.405Z,2.35
2017-12-09T02:34:16.891Z,3.00
2017-12-09T02:36:44.371Z,2.30
2017-12-09T02:39:11.609Z,2.72
2017-12-09T02:41:39.090Z,2.83
2017-12-09T02:44:06.570Z,2.55
2017-12-09T02:46:34.058Z,2.78
2017-12-09T02:49:01.538Z,2.55
2017-12-09T02:51:29.016Z,1.87
2017-12-09T02:53:56.490Z,2.30
2017-12-09T02:56:23.734Z,2.70
2017-12-09T02:58:51.217Z,2.70
2017-12-09T03:01:18.695Z,2.08
2017-12-09T03:03:46.173Z,3.17
2017-12-09T03:06:13.675Z,2.67
2017-12-09T03:08:41.146Z,2.10
2017-12-09T03:11:08.728Z,2.30
2017-12-09T03:13:36.209Z,2.22
2017-12-09T03:16:03.448Z,2.37
2017-12-09T03:18:31.895Z,2.12
2017-12-09T03:20:59.478Z,2.20
2017-12-09T03:23:26.972Z,2.03
2017-12-09T03:25:54.548Z,1.92
2017-12-09T03:28:22.181Z,2.30
2017-12-09T03:30:49.660Z,2.00
2017-12-09T03:33:17.278Z,2.47
2017-12-09T03:35:44.787Z,2.25
2017-12-09T03:38:12.262Z,1.80
2017-12-09T03:40:39.854Z,2.08
2017-12-09T03:43:07.353Z,2.10
2017-12-09T03:45:34.851Z,2.03
2017-12-09T03:48:02.320Z,2.50
2017-12-09T03:50:29.828Z,2.78
2017-12-09T03:52:57.343Z,2.67
2017-12-09T03:55:24.841Z,2.22
2017-12-09T03:57:52.522Z,2.03
2017-12-09T04:00:20.023Z,2.45
2017-12-09T04:02:47.502Z,1.92
2017-12-09T04:05:14.982Z,2.20
2017-12-09T04:07:42.489Z,2.03
2017-12-09T04:10:10.729Z,2.50
2017-12-09T04:12:38.315Z,2.20
2017-12-09T04:15:05.799Z,1.90
2017-12-09T04:17:33.279Z,2.40
2017-12-09T04:20:00.762Z,2.20
2017-12-09T04:22:28.381Z,2.00
2017-12-09T04:24:55.862Z,2.12
2017-12-09T04:27:23.150Z,2.00
2017-12-09T04:29:50.629Z,2.28
2017-12-09T04:32:18.106Z,2.05
2017-12-09T04:34:45.592Z,2.33
2017-12-09T04:37:14.019Z,1.92
2017-12-09T04:39:42.449Z,2.10
2017-12-09T04:42:09.945Z,1.67
2017-12-09T04:44:37.418Z,1.62
2017-12-09T04:47:04.910Z,1.60
2017-12-09T04:49:32.386Z,1.60
2017-12-09T04:51:59.908Z,1.48
2017-12-09T04:54:27.388Z,1.55
2017-12-09T04:56:55.035Z,1.40
2017-12-09T04:59:23.462Z,1.20
2017-12-09T05:01:50.950Z,1.20
2017-12-09T05:04:18.434Z,1.95
2017-12-09T05:06:45.935Z,1.65
2017-12-09T05:09:13.410Z,1.83
2017-12-09T05:11:40.929Z,1.50
2017-12-09T05:14:08.418Z,1.45
2017-12-09T05:16:35.895Z,1.98
2017-12-09T05:19:03.400Z,1.45
2017-12-09T05:21:30.871Z,1.20
2017-12-09T05:23:58.373Z,1.50
2017-12-09T05:26:25.857Z,1.73
2017-12-09T05:28:53.334Z,1.30
2017-12-09T05:31:20.809Z,1.50
2017-12-09T05:33:48.285Z,1.42
2017-12-09T05:36:15.883Z,1.77
2017-12-09T05:38:43.367Z,1.60
2017-12-09T05:41:10.846Z,1.62
2017-12-09T05:43:38.356Z,2.35
2017-12-09T05:46:05.850Z,1.50
2017-12-09T05:48:33.346Z,1.55
2017-12-09T05:51:00.829Z,1.70
2017-12-09T05:53:28.301Z,2.10
2017-12-09T05:55:55.771Z,2.72
2017-12-09T05:58:23.251Z,1.55
2017-12-09T06:00:51.758Z,1.70
2017-12-09T06:03:19.231Z,1.52
2017-12-09T06:05:46.703Z,2.72
2017-12-09T06:08:14.187Z,1.80
2017-12-09T06:10:41.667Z,2.22
2017-12-09T06:13:09.160Z,1.75
2017-12-09T06:15:36.629Z,1.60
2017-12-09T06:18:04.121Z,1.30
2017-12-09T06:20:31.618Z,1.75
2017-12-09T06:22:59.122Z,2.47
2017-12-09T06:25:26.605Z,5.75
2017-12-09T06:27:55.105Z,6.93
2017-12-09T06:30:22.589Z,2.85
2017-12-09T06:32:50.093Z,2.12
2017-12-09T06:35:17.566Z,1.85
2017-12-09T06:37:45.074Z,2.42
2017-12-09T06:40:12.558Z,3.42
2017-12-09T06:42:45.365Z,4.90
2017-12-09T06:45:12.972Z,4.35
2017-12-09T06:47:40.479Z,3.17
2017-12-09T06:50:07.958Z,1.83
2017-12-09T06:52:35.462Z,2.40
2017-12-09T06:55:02.950Z,1.45
2017-12-09T06:57:30.429Z,2.10
2017-12-09T06:59:57.918Z,2.00
2017-12-09T07:02:25.483Z,1.30
2017-12-09T07:04:52.990Z,2.60
2017-12-09T07:07:20.466Z,1.90
2017-12-09T07:09:47.938Z,2.50
2017-12-09T07:12:15.415Z,1.75
2017-12-09T07:14:44.623Z,1.95
2017-12-09T07:17:12.112Z,1.80
2017-12-09T07:19:39.590Z,1.70
2017-12-09T07:22:07.072Z,1.75
2017-12-09T07:24:34.546Z,2.12
2017-12-09T07:27:02.027Z,1.95
2017-12-09T07:29:29.503Z,1.95
2017-12-09T07:31:56.984Z,2.15
2017-12-09T07:34:24.466Z,2.08
2017-12-09T07:36:52.034Z,1.80
2017-12-09T07:39:19.511Z,1.67
2017-12-09T07:41:46.990Z,2.42
2017-12-09T07:44:14.494Z,2.33
2017-12-09T07:46:41.971Z,1.80
2017-12-09T07:49:09.470Z,6.57
2017-12-09T07:51:38.725Z,4.97
2017-12-09T07:54:06.262Z,3.05
2017-12-09T07:56:33.766Z,3.40
2017-12-09T07:59:01.330Z,2.67
2017-12-09T08:01:28.838Z,2.60
2017-12-09T08:03:56.331Z,1.60
2017-12-09T08:06:23.813Z,2.42
2017-12-09T08:08:51.311Z,2.92
2017-12-09T08:11:18.795Z,3.60
2017-12-09T08:13:46.310Z,5.45
2017-12-09T08:16:13.804Z,2.90
2017-12-09T08:18:41.306Z,2.30
2017-12-09T08:21:08.805Z,1.87
2017-12-09T08:23:36.298Z,2.90
2017-12-09T08:26:03.799Z,3.30
2017-12-09T08:28:31.282Z,2.85
2017-12-09T08:30:58.791Z,2.83
2017-12-09T08:33:26.477Z,2.53
2017-12-09T08:35:54.065Z,1.60
2017-12-09T08:38:21.636Z,2.20
2017-12-09T08:40:49.166Z,2.62
2017-12-09T08:43:16.647Z,3.17
2017-12-09T08:45:44.145Z,2.45
2017-12-09T08:48:11.620Z,2.30
2017-12-09T08:50:39.129Z,2.17
2017-12-09T08:53:07.839Z,2.05
2017-12-09T08:55:35.338Z,1.70
2017-12-09T08:58:02.823Z,1.73
2017-12-09T09:00:30.594Z,2.12
2017-12-09T09:02:58.066Z,1.75
2017-12-09T09:05:25.541Z,1.60
2017-12-09T09:07:53.026Z,1.65
2017-12-09T09:10:20.512Z,1.70
2017-12-09T09:12:48.038Z,1.85
2017-12-09T09:15:15.513Z,2.10
2017-12-09T09:17:43.101Z,1.85
2017-12-09T09:20:10.583Z,1.80
2017-12-09T09:22:38.078Z,1.42
2017-12-09T09:25:05.577Z,1.40
2017-12-09T09:27:33.057Z,1.52
2017-12-09T09:30:00.538Z,1.30
2017-12-09T09:32:28.073Z,1.20
2017-12-09T09:34:55.574Z,1.60
2017-12-09T09:37:23.045Z,1.60
2017-12-09T09:39:50.527Z,1.42
2017-12-09T09:42:18.022Z,1.80
2017-12-09T09:44:45.510Z,3.35
2017-12-09T09:47:13.098Z,1.85
2017-12-09T09:49:40.611Z,2.50
2017-12-09T09:52:08.090Z,3.30
2017-12-09T09:54:35.563Z,1.37
2017-12-09T09:57:03.131Z,1.23
2017-12-09T09:59:30.614Z,1.12
2017-12-09T10:01:58.101Z,1.00
2017-12-09T10:04:25.582Z,1.15
2017-12-09T10:06:53.065Z,1.00
2017-12-09T10:09:20.824Z,1.02
2017-12-09T10:11:48.385Z,0.88
2017-12-09T10:14:15.870Z,1.33
2017-12-09T10:16:43.371Z,1.27
2017-12-09T10:19:10.863Z,1.30
2017-12-09T10:21:38.334Z,0.90
2017-12-09T10:24:05.807Z,1.30
2017-12-09T10:26:33.285Z,1.10
2017-12-09T10:29:02.767Z,1.20
2017-12-09T10:31:30.250Z,1.15
2017-12-09T10:33:57.722Z,1.20
2017-12-09T10:36:25.199Z,1.00
2017-12-09T10:38:52.675Z,1.20
2017-12-09T10:41:20.174Z,1.00
2017-12-09T10:43:47.649Z,0.93
2017-12-09T10:46:15.121Z,1.05
2017-12-09T10:48:42.702Z,1.58
2017-12-09T10:51:10.182Z,1.35
2017-12-09T10:53:37.659Z,1.23
2017-12-09T10:56:05.138Z,1.23
2017-12-09T10:58:32.615Z,1.08
2017-12-09T11:01:00.192Z,1.25
2017-12-09T11:03:27.681Z,1.40
2017-12-09T11:05:55.154Z,1.30
2017-12-09T11:08:22.629Z,1.60
2017-12-09T11:10:50.098Z,1.37
2017-12-09T11:13:17.630Z,2.00
2017-12-09T11:15:45.102Z,1.08
2017-12-09T11:18:13.237Z,2.05
2017-12-09T11:20:40.713Z,2.00
2017-12-09T11:23:08.196Z,2.35
2017-12-09T11:25:35.790Z,2.30
2017-12-09T11:28:03.274Z,1.30
2017-12-09T11:30:30.874Z,1.62
2017-12-09T11:32:58.350Z,1.00
2017-12-09T11:35:25.824Z,1.25
2017-12-09T11:37:53.307Z,1.10
2017-12-09T11:40:20.782Z,1.15
2017-12-09T11:42:48.479Z,1.08
2017-12-09T11:45:15.952Z,1.23
2017-12-09T11:47:43.446Z,1.27
2017-12-09T11:50:10.919Z,0.98
2017-12-09T11:52:38.398Z,1.10
2017-12-09T11:55:05.909Z,1.33
2017-12-09T11:57:33.384Z,1.00
2017-12-09T12:00:01.815Z,1.25
2017-12-09T12:02:29.323Z,1.23
2017-12-09T12:04:57.331Z,1.10
2017-12-09T12:07:24.858Z,1.12
2017-12-09T12:09:52.411Z,1.35
2017-12-09T12:12:19.878Z,0.90
2017-12-09T12:14:47.350Z,1.10
2017-12-09T12:17:14.822Z,1.00
2017-12-09T12:19:42.322Z,1.05
2017-12-09T12:22:09.793Z,0.90
2017-12-09T12:24:37.265Z,1.00
2017-12-09T12:27:04.751Z,1.55
2017-12-09T12:29:32.235Z,1.45
2017-12-09T12:31:59.727Z,1.40
2017-12-09T12:34:27.213Z,1.50
2017-12-09T12:36:54.898Z,1.30
2017-12-09T12:39:22.375Z,3.67
2017-12-09T12:41:49.858Z,2.22
2017-12-09T12:44:19.278Z,1.20
2017-12-09T12:46:46.750Z,1.37
2017-12-09T12:49:14.235Z,1.50
2017-12-09T12:51:41.721Z,1.50
2017-12-09T12:54:09.199Z,3.50
2017-12-09T12:56:36.693Z,2.00
2017-12-09T12:59:05.123Z,1.52
2017-12-09T13:01:32.595Z,1.55
2017-12-09T13:04:00.074Z,1.45
2017-12-09T13:06:27.546Z,1.35
2017-12-09T13:08:55.521Z,1.20
2017-12-09T13:11:23.009Z,1.00
2017-12-09T13:13:50.524Z,0.98
2017-12-09T13:16:18.010Z,1.20
2017-12-09T13:18:45.488Z,0.85
2017-12-09T13:21:13.050Z,1.50
2017-12-09T13:23:40.538Z,2.25
2017-12-09T13:26:08.038Z,1.08
2017-12-09T13:28:35.537Z,1.92
2017-12-09T13:31:03.018Z,2.05
2017-12-09T13:33:30.503Z,1.70
2017-12-09T13:35:57.985Z,1.87
2017-12-09T13:38:25.462Z,1.30
2017-12-09T13:40:54.882Z,1.00
2017-12-09T13:43:22.378Z,1.00
2017-12-09T13:45:49.852Z,1.00
2017-12-09T13:48:17.323Z,1.00
2017-12-09T13:50:44.802Z,1.00
2017-12-09T13:53:12.278Z,1.10
2017-12-09T13:55:39.793Z,1.62
2017-12-09T13:58:07.279Z,1.12
2017-12-09T14:00:34.754Z,1.90
2017-12-09T14:03:02.226Z,1.10
2017-12-09T14:05:31.699Z,0.98
2017-12-09T14:07:59.186Z,2.12
2017-12-09T14:10:26.667Z,1.05
2017-12-09T14:12:54.165Z,0.77
2017-12-09T14:15:21.720Z,1.10
2017-12-09T14:17:49.215Z,1.00
2017-12-09T14:20:16.696Z,1.12
2017-12-09T14:22:44.268Z,0.95
2017-12-09T14:25:11.763Z,0.95
2017-12-09T14:27:39.247Z,0.95
2017-12-09T14:30:06.740Z,1.00
2017-12-09T14:32:34.214Z,1.10
2017-12-09T14:35:01.691Z,0.98
2017-12-09T14:37:30.119Z,0.88
2017-12-09T14:39:57.593Z,1.20
2017-12-09T14:42:25.083Z,1.00
2017-12-09T14:44:52.561Z,1.10
2017-12-09T14:47:20.036Z,0.90
2017-12-09T14:49:47.526Z,1.30
2017-12-09T14:52:15.086Z,1.30
2017-12-09T14:54:42.588Z,1.35
2017-12-09T14:57:10.054Z,0.90
2017-12-09T14:59:37.546Z,1.40
2017-12-09T15:02:05.018Z,1.58
2017-12-09T15:04:32.486Z,1.10
2017-12-09T15:06:59.967Z,1.45
2017-12-09T15:09:27.440Z,1.30
2017-12-09T15:11:54.931Z,1.15
2017-12-09T15:14:22.445Z,1.37
2017-12-09T15:16:49.924Z,1.20
2017-12-09T15:19:17.434Z,1.45
2017-12-09T15:21:44.907Z,1.23
2017-12-09T15:24:12.383Z,1.67
2017-12-09T15:26:39.862Z,1.35
2017-12-09T15:29:07.352Z,1.10
2017-12-09T15:31:34.830Z,1.20
2017-12-09T15:34:02.374Z,1.27
2017-12-09T15:36:29.846Z,0.90
2017-12-09T15:38:57.318Z,1.60
2017-12-09T15:41:24.812Z,1.50
2017-12-09T15:43:52.286Z,2.00
2017-12-09T15:46:20.515Z,1.50
2017-12-09T15:48:47.997Z,1.40
2017-12-09T15:51:15.474Z,1.52
2017-12-09T15:53:42.978Z,2.00
2017-12-09T15:56:10.449Z,1.52
2017-12-09T15:58:37.929Z,1.15
2017-12-09T16:01:06.450Z,1.48
2017-12-09T16:03:33.929Z,1.35
2017-12-09T16:06:01.427Z,1.00
2017-12-09T16:08:28.902Z,1.30
2017-12-09T16:10:56.422Z,1.87
2017-12-09T16:13:23.894Z,1.37
2017-12-09T16:15:51.396Z,1.30
2017-12-09T16:18:18.875Z,1.35
2017-12-09T16:20:46.357Z,1.12
2017-12-09T16:23:13.836Z,1.50
2017-12-09T16:25:41.310Z,1.52
2017-12-09T16:28:08.810Z,1.52
2017-12-09T16:30:36.281Z,1.10
2017-12-09T16:33:03.758Z,1.20
2017-12-09T16:35:31.056Z,1.50
2017-12-09T16:37:59.577Z,1.85
2017-12-09T16:40:27.063Z,1.90
2017-12-09T16:42:54.537Z,1.40
2017-12-09T16:45:22.013Z,1.27
2017-12-09T16:47:49.515Z,1.62
2017-12-09T16:50:16.990Z,1.25
2017-12-09T16:52:44.464Z,1.30
2017-12-09T16:55:11.943Z,0.95
2017-12-09T16:57:39.423Z,1.55
2017-12-09T17:00:06.910Z,1.55
2017-12-09T17:02:35.891Z,1.45
2017-12-09T17:05:03.182Z,1.20
2017-12-09T17:07:30.678Z,1.30
2017-12-09T17:09:58.165Z,1.85
2017-12-09T17:12:25.643Z,1.17
2017-12-09T17:14:53.164Z,1.05
2017-12-09T17:17:20.634Z,1.10
2017-12-09T17:19:48.113Z,1.50
2017-12-09T17:22:15.594Z,1.20
2017-12-09T17:24:43.077Z,1.00
2017-12-09T17:27:10.570Z,1.75
2017-12-09T17:29:38.046Z,2.45
2017-12-09T17:32:05.518Z,0.98
2017-12-09T17:34:32.993Z,1.20
2017-12-09T17:37:00.490Z,1.20
2017-12-09T17:39:27.961Z,1.10
2017-12-09T17:41:55.573Z,0.93
2017-12-09T17:44:23.065Z,2.10
2017-12-09T17:46:50.591Z,4.40
2017-12-09T17:49:18.066Z,1.08
2017-12-09T17:51:45.562Z,0.98
2017-12-09T17:54:13.043Z,1.23
2017-12-09T17:56:40.555Z,1.12
2017-12-09T17:59:08.031Z,1.10
2017-12-09T18:01:35.530Z,1.30
2017-12-09T18:04:03.002Z,0.98
2017-12-09T18:06:30.497Z,1.45
2017-12-09T18:08:57.970Z,1.67
2017-12-09T18:11:25.442Z,2.50
2017-12-09T18:13:52.948Z,1.62
2017-12-09T18:16:20.421Z,2.00
2017-12-09T18:18:47.903Z,1.42
2017-12-09T18:21:15.391Z,1.45
2017-12-09T18:23:42.872Z,1.62
2017-12-09T18:26:10.361Z,1.23
2017-12-09T18:28:37.862Z,1.48
2017-12-09T18:31:05.442Z,1.20
2017-12-09T18:33:32.942Z,1.20
2017-12-09T18:36:00.419Z,1.00
2017-12-09T18:38:28.959Z,1.40
2017-12-09T18:40:56.432Z,1.10
2017-12-09T18:43:23.926Z,1.00
2017-12-09T18:45:51.397Z,1.00
2017-12-09T18:48:18.891Z,1.00
2017-12-09T18:50:46.374Z,1.20
2017-12-09T18:53:13.874Z,1.08
2017-12-09T18:55:41.351Z,1.42
2017-12-09T18:58:08.828Z,1.17
2017-12-09T19:00:36.314Z,1.20
2017-12-09T19:03:03.790Z,1.20
2017-12-09T19:05:31.110Z,1.58
2017-12-09T19:07:58.611Z,1.17
2017-12-09T19:10:26.099Z,1.65
2017-12-09T19:12:53.653Z,1.00
2017-12-09T19:15:21.126Z,1.30
2017-12-09T19:17:48.622Z,1.17
2017-12-09T19:20:16.105Z,1.65
2017-12-09T19:22:43.590Z,1.45
2017-12-09T19:25:11.070Z,1.20
2017-12-09T19:27:38.634Z,2.55
2017-12-09T19:30:06.146Z,12.35
2017-12-09T19:32:33.642Z,15.93
2017-12-09T19:35:01.123Z,5.47
2017-12-09T19:37:28.618Z,8.32
2017-12-09T19:39:56.154Z,2.25
2017-12-09T19:42:23.792Z,2.37
2017-12-09T19:44:51.267Z,1.67
2017-12-09T19:47:18.750Z,1.95
2017-12-09T19:49:46.317Z,1.80
2017-12-09T19:52:13.813Z,1.30
2017-12-09T19:54:41.289Z,1.55
2017-12-09T19:57:08.768Z,1.50
2017-12-09T19:59:37.225Z,2.22
2017-12-09T20:02:05.158Z,1.20
2017-12-09T20:04:32.652Z,1.35
2017-12-09T20:07:00.132Z,1.10
2017-12-09T20:09:27.739Z,1.62
2017-12-09T20:11:55.210Z,1.80
2017-12-09T20:14:23.865Z,1.50
2017-12-09T20:16:52.290Z,1.40
2017-12-09T20:19:19.787Z,1.30
2017-12-09T20:21:47.292Z,2.00
2017-12-09T20:24:14.768Z,1.27
2017-12-09T20:26:42.244Z,1.30
2017-12-09T20:29:09.725Z,1.30
2017-12-09T20:31:37.306Z,1.55
2017-12-09T20:34:04.815Z,1.25
2017-12-09T20:36:32.350Z,1.27
2017-12-09T20:38:59.825Z,1.40
2017-12-09T20:41:27.298Z,0.80
2017-12-09T20:43:54.913Z,1.08
2017-12-09T20:46:22.419Z,1.35
2017-12-09T20:48:49.896Z,1.50
2017-12-09T20:51:18.315Z,2.20
2017-12-09T20:53:45.843Z,1.40
2017-12-09T20:56:13.430Z,1.67
2017-12-09T20:58:40.677Z,1.20
2017-12-09T21:01:09.202Z,1.00
2017-12-09T21:03:37.439Z,1.70
2017-12-09T21:06:05.031Z,1.12
2017-12-09T21:08:32.529Z,0.90
2017-12-09T21:11:00.008Z,1.45
2017-12-09T21:13:27.501Z,0.90
2017-12-09T21:15:55.005Z,0.90
2017-12-09T21:18:22.505Z,1.10
2017-12-09T21:20:49.978Z,1.33
2017-12-09T21:23:17.454Z,0.98
2017-12-09T21:25:44.926Z,1.33
2017-12-09T21:28:12.505Z,1.05
2017-12-09T21:30:39.999Z,1.50
2017-12-09T21:33:07.640Z,0.90
2017-12-09T21:35:35.114Z,0.77
2017-12-09T21:38:02.590Z,1.05
2017-12-09T21:40:30.057Z,0.70
2017-12-09T21:42:57.675Z,1.10
2017-12-09T21:45:25.171Z,0.90
2017-12-09T21:47:52.654Z,0.88
2017-12-09T21:50:20.143Z,1.00
2017-12-09T21:52:47.709Z,1.30
2017-12-09T21:55:15.173Z,0.73
2017-12-09T21:57:42.720Z,1.73
2017-12-09T22:00:10.003Z,1.10
2017-12-09T22:02:37.480Z,1.35
2017-12-09T22:05:04.996Z,1.08
2017-12-09T22:07:32.468Z,0.70
2017-12-09T22:09:59.934Z,0.75
2017-12-09T22:12:27.406Z,0.73
2017-12-09T22:14:54.898Z,0.90
2017-12-09T22:17:22.384Z,1.20
2017-12-09T22:19:49.854Z,0.90
2017-12-09T22:22:17.326Z,0.80
2017-12-09T22:24:44.797Z,1.00
2017-12-09T22:27:12.287Z,0.95
2017-12-09T22:29:39.783Z,1.12
2017-12-09T22:32:07.257Z,0.80
2017-12-09T22:34:35.691Z,0.70
2017-12-09T22:37:03.272Z,0.90
2017-12-09T22:39:30.747Z,0.70
2017-12-09T22:41:58.241Z,0.75
2017-12-09T22:44:25.733Z,0.90
2017-12-09T22:46:53.209Z,0.80
2017-12-09T22:49:20.702Z,0.85
2017-12-09T22:51:48.176Z,0.80
2017-12-09T22:54:15.781Z,0.93
2017-12-09T22:56:43.256Z,0.80
2017-12-09T22:59:10.750Z,0.90
2017-12-09T23:01:38.270Z,0.80
2017-12-09T23:04:05.906Z,0.90
2017-12-09T23:06:33.371Z,0.80
2017-12-09T23:09:00.843Z,0.70
2017-12-09T23:11:28.322Z,1.08
2017-12-09T23:13:55.851Z,1.42
2017-12-09T23:16:24.282Z,0.88
2017-12-09T23:18:51.756Z,1.00
2017-12-09T23:21:19.272Z,1.00
2017-12-09T23:23:46.805Z,0.85
2017-12-09T23:26:14.287Z,1.55
2017-12-09T23:28:41.758Z,1.10
2017-12-09T23:31:09.237Z,1.10
2017-12-09T23:33:36.716Z,1.30
2017-12-09T23:36:04.218Z,1.15
2017-12-09T23:38:31.692Z,1.05
2017-12-09T23:40:59.171Z,1.10
2017-12-09T23:43:26.651Z,1.25
2017-12-09T23:45:54.553Z,1.65
2017-12-09T23:48:22.038Z,1.52
2017-12-09T23:50:49.508Z,1.20
2017-12-09T23:53:16.982Z,1.17
2017-12-09T23:55:44.465Z,1.50
2017-12-09T23:58:11.961Z,1.20
